createdAt,value
2019-03-25T00:00:38.301Z,26.55
2019-03-25T00:03:09.306Z,23.45
2019-03-25T00:05:38.726Z,25.17
2019-03-25T00:08:08.172Z,22.98
2019-03-25T00:10:37.514Z,21.33
2019-03-25T00:13:06.892Z,24.32
2019-03-25T00:15:36.246Z,22.52
2019-03-25T00:18:05.841Z,17.98
2019-03-25T00:20:35.213Z,22.90
2019-03-25T00:23:04.594Z,24.65
2019-03-25T00:25:34.026Z,20.12
2019-03-25T00:28:03.462Z,21.75
2019-03-25T00:30:32.811Z,20.17
2019-03-25T00:33:02.354Z,20.80
2019-03-25T00:35:31.689Z,25.88
2019-03-25T00:38:01.262Z,16.95
2019-03-25T00:40:30.675Z,18.00
2019-03-25T00:43:00.198Z,18.60
2019-03-25T00:45:29.758Z,15.80
2019-03-25T00:47:59.130Z,24.27
2019-03-25T00:50:28.564Z,19.70
2019-03-25T00:52:58.012Z,19.92
2019-03-25T00:55:27.380Z,13.30
2019-03-25T00:57:56.749Z,13.10
2019-03-25T01:00:26.102Z,13.10
2019-03-25T01:02:55.242Z,15.72
2019-03-25T01:05:24.574Z,19.50
2019-03-25T01:07:54.108Z,9.93
2019-03-25T01:10:23.607Z,17.35
2019-03-25T01:12:52.977Z,15.08
2019-03-25T01:15:22.387Z,17.23
2019-03-25T01:17:52.060Z,15.83
2019-03-25T01:20:21.565Z,18.57
2019-03-25T01:22:52.510Z,18.12
2019-03-25T01:25:22.042Z,14.58
2019-03-25T01:27:51.448Z,18.73
2019-03-25T01:30:20.865Z,14.55
2019-03-25T01:32:50.242Z,17.62
2019-03-25T01:35:19.679Z,15.68
2019-03-25T01:37:49.903Z,26.45
2019-03-25T01:40:19.353Z,17.12
2019-03-25T01:42:48.854Z,18.02
2019-03-25T01:45:18.277Z,14.85
2019-03-25T01:47:47.658Z,14.50
2019-03-25T01:50:17.070Z,17.30
2019-03-25T01:52:46.676Z,21.80
2019-03-25T01:55:16.093Z,13.18
2019-03-25T01:57:46.621Z,25.50
2019-03-25T02:00:16.627Z,16.10
2019-03-25T02:02:46.212Z,21.93
2019-03-25T02:05:15.637Z,22.32
2019-03-25T02:07:45.570Z,14.65
2019-03-25T02:10:15.586Z,19.87
2019-03-25T02:12:45.175Z,19.82
2019-03-25T02:15:15.863Z,18.67
2019-03-25T02:17:45.331Z,19.12
2019-03-25T02:20:25.521Z,14.73
2019-03-25T02:22:46.132Z,24.40
2019-03-25T02:25:25.255Z,18.55
2019-03-25T02:30:17.363Z,16.02
2019-03-25T02:32:46.837Z,16.73
2019-03-25T02:35:16.335Z,21.40
2019-03-25T02:37:47.345Z,26.35
2019-03-25T02:40:16.791Z,15.83
2019-03-25T02:42:46.388Z,18.20
2019-03-25T02:45:15.744Z,21.17
2019-03-25T02:47:45.350Z,14.83
2019-03-25T02:50:14.889Z,10.88
2019-03-25T02:52:44.329Z,19.13
2019-03-25T02:55:13.690Z,15.05
2019-03-25T02:57:43.054Z,15.95
2019-03-25T03:00:13.243Z,13.55
2019-03-25T03:02:42.680Z,17.32
2019-03-25T03:05:12.182Z,15.03
2019-03-25T03:07:41.631Z,17.52
2019-03-25T03:10:14.342Z,12.45
2019-03-25T03:15:12.622Z,12.25
2019-03-25T03:17:42.441Z,15.60
2019-03-25T03:20:12.040Z,17.87
2019-03-25T03:22:41.416Z,17.20
2019-03-25T03:25:10.934Z,19.48
2019-03-25T03:27:40.374Z,19.48
2019-03-25T03:30:10.082Z,19.82
2019-03-25T03:32:39.499Z,22.27
2019-03-25T03:35:09.262Z,21.68
2019-03-25T03:37:38.631Z,23.02
2019-03-25T03:40:08.255Z,22.15
2019-03-25T03:42:37.964Z,25.08
2019-03-25T03:45:08.277Z,27.05
2019-03-25T03:47:38.766Z,30.45
2019-03-25T03:50:09.261Z,37.30
2019-03-25T03:52:40.344Z,33.15
2019-03-25T03:55:09.840Z,28.98
2019-03-25T03:57:39.460Z,29.27
2019-03-25T04:00:12.013Z,34.80
2019-03-25T04:02:41.599Z,32.23
2019-03-25T04:05:11.118Z,32.93
2019-03-25T04:07:40.629Z,28.52
2019-03-25T04:10:10.489Z,30.72
2019-03-25T04:12:39.881Z,23.00
2019-03-25T04:15:11.056Z,30.35
2019-03-25T04:17:41.589Z,32.23
2019-03-25T04:20:11.178Z,24.95
2019-03-25T04:22:40.535Z,22.10
2019-03-25T04:25:10.125Z,32.75
2019-03-25T04:27:39.493Z,31.48
2019-03-25T04:30:09.682Z,25.08
2019-03-25T04:32:39.453Z,32.60
2019-03-25T04:35:08.962Z,25.08
2019-03-25T04:37:38.490Z,34.85
2019-03-25T04:40:08.769Z,29.10
2019-03-25T04:42:38.140Z,29.80
2019-03-25T04:45:08.746Z,22.42
2019-03-25T04:47:38.567Z,26.77
2019-03-25T04:50:09.212Z,31.60
2019-03-25T04:52:38.662Z,35.50
2019-03-25T04:55:08.277Z,33.65
2019-03-25T04:57:37.971Z,26.33
2019-03-25T05:00:09.104Z,23.12
2019-03-25T05:02:38.486Z,30.40
2019-03-25T05:05:10.193Z,30.52
2019-03-25T05:07:39.560Z,24.25
2019-03-25T05:10:09.472Z,24.70
2019-03-25T05:12:38.857Z,27.90
2019-03-25T05:15:08.778Z,29.87
2019-03-25T05:17:38.259Z,26.97
2019-03-25T05:20:07.940Z,27.67
2019-03-25T05:22:37.337Z,29.25
2019-03-25T05:25:07.497Z,25.02
2019-03-25T05:27:36.876Z,20.75
2019-03-25T05:30:08.055Z,21.23
2019-03-25T05:32:37.436Z,36.17
2019-03-25T05:35:07.340Z,28.17
2019-03-25T05:37:36.704Z,29.37
2019-03-25T05:40:06.534Z,25.80
2019-03-25T05:42:36.049Z,23.57
2019-03-25T05:45:07.118Z,31.33
2019-03-25T05:47:36.496Z,29.55
2019-03-25T05:50:09.168Z,31.75
2019-03-25T05:55:08.742Z,29.98
2019-03-25T05:57:38.197Z,32.93
2019-03-25T06:00:08.143Z,30.23
2019-03-25T06:02:37.534Z,27.52
2019-03-25T06:05:07.455Z,30.62
2019-03-25T06:07:36.879Z,33.85
2019-03-25T06:10:07.346Z,26.42
2019-03-25T06:12:36.932Z,24.25
2019-03-25T06:15:07.301Z,31.33
2019-03-25T06:17:37.239Z,30.82
2019-03-25T06:20:07.785Z,26.95
2019-03-25T06:22:37.333Z,27.45
2019-03-25T06:25:08.436Z,23.32
2019-03-25T06:27:39.725Z,33.33
2019-03-25T06:30:10.834Z,25.68
2019-03-25T06:32:40.237Z,28.55
2019-03-25T06:35:09.823Z,32.25
2019-03-25T06:37:39.270Z,29.50
2019-03-25T06:40:08.985Z,26.55
2019-03-25T06:42:38.616Z,24.18
2019-03-25T06:45:09.842Z,26.48
2019-03-25T06:47:39.480Z,27.62
2019-03-25T06:50:09.494Z,22.73
2019-03-25T06:52:38.939Z,21.90
2019-03-25T06:55:08.849Z,30.48
2019-03-25T06:57:38.799Z,21.62
2019-03-25T07:00:09.869Z,26.95
2019-03-25T07:02:39.712Z,31.80
2019-03-25T07:05:09.740Z,23.25
2019-03-25T07:07:39.331Z,24.95
2019-03-25T07:10:09.878Z,21.87
2019-03-25T07:12:40.166Z,20.10
2019-03-25T07:15:10.174Z,27.35
2019-03-25T07:17:39.626Z,31.40
2019-03-25T07:20:09.696Z,24.55
2019-03-25T07:22:40.065Z,20.27
2019-03-25T07:25:09.614Z,21.50
2019-03-25T07:27:39.091Z,27.40
2019-03-25T07:30:11.318Z,25.00
2019-03-25T07:32:40.021Z,30.08
2019-03-25T07:35:09.769Z,23.20
2019-03-25T07:37:40.797Z,27.40
2019-03-25T07:40:11.016Z,30.40
2019-03-25T07:42:42.789Z,24.00
2019-03-25T07:45:12.062Z,27.37
2019-03-25T07:47:41.512Z,22.55
2019-03-25T07:50:11.312Z,31.62
2019-03-25T07:52:40.852Z,35.70
2019-03-25T07:55:11.509Z,27.80
2019-03-25T07:57:48.145Z,30.37
2019-03-25T08:00:14.408Z,28.07
2019-03-25T08:02:45.203Z,24.40
2019-03-25T08:05:16.319Z,26.52
2019-03-25T08:07:45.819Z,25.97
2019-03-25T08:10:18.384Z,33.67
2019-03-25T08:12:47.852Z,27.22
2019-03-25T08:15:17.368Z,20.08
2019-03-25T08:17:46.886Z,29.20
2019-03-25T08:20:16.760Z,24.92
2019-03-25T08:22:47.494Z,24.27
2019-03-25T08:25:16.976Z,28.00
2019-03-25T08:27:46.349Z,29.80
2019-03-25T08:30:35.609Z,25.92
2019-03-25T08:33:05.613Z,27.67
2019-03-25T08:35:35.180Z,35.17
2019-03-25T08:38:05.710Z,33.85
2019-03-25T08:40:35.138Z,20.15
2019-03-25T08:43:04.677Z,30.17
2019-03-25T08:45:34.163Z,23.87
2019-03-25T08:48:03.516Z,26.87
2019-03-25T08:50:32.941Z,32.20
2019-03-25T08:53:02.497Z,20.82
2019-03-25T08:55:31.979Z,28.27
2019-03-25T08:58:11.539Z,20.30
2019-03-25T09:00:32.434Z,29.02
2019-03-25T09:03:01.911Z,28.52
2019-03-25T09:05:31.584Z,27.85
2019-03-25T09:08:00.951Z,32.28
2019-03-25T09:10:30.441Z,29.57
2019-03-25T09:12:59.998Z,30.90
2019-03-25T09:15:29.693Z,26.25
2019-03-25T09:17:59.345Z,34.03
2019-03-25T09:20:29.136Z,27.13
2019-03-25T09:23:11.939Z,25.80
2019-03-25T09:25:41.420Z,26.42
2019-03-25T09:28:11.167Z,27.90
2019-03-25T09:30:55.724Z,26.55
2019-03-25T09:33:25.619Z,35.08
2019-03-25T09:35:55.283Z,28.60
2019-03-25T09:38:24.916Z,31.48
2019-03-25T09:40:54.637Z,27.07
2019-03-25T09:43:24.184Z,25.68
2019-03-25T09:45:54.884Z,20.43
2019-03-25T09:48:24.583Z,22.73
2019-03-25T09:50:54.110Z,19.15
2019-03-25T09:53:23.586Z,34.03
2019-03-25T09:55:53.013Z,21.10
2019-03-25T09:58:22.529Z,15.88
2019-03-25T10:00:52.264Z,21.57
2019-03-25T10:03:22.768Z,27.22
2019-03-25T10:05:52.335Z,32.30
2019-03-25T10:08:21.709Z,30.72
2019-03-25T10:10:51.063Z,35.75
2019-03-25T10:13:20.561Z,36.53
2019-03-25T10:15:49.940Z,27.30
2019-03-25T10:18:19.392Z,28.15
2019-03-25T10:20:48.895Z,25.68
2019-03-25T10:23:18.568Z,32.50
2019-03-25T10:25:48.064Z,21.87
2019-03-25T10:28:20.720Z,15.70
2019-03-25T10:30:50.286Z,19.95
2019-03-25T10:33:20.168Z,17.45
2019-03-25T10:35:49.763Z,19.90
2019-03-25T10:38:20.029Z,20.35
2019-03-25T10:40:49.593Z,20.68
2019-03-25T10:43:19.353Z,20.08
2019-03-25T10:45:48.933Z,19.80
2019-03-25T10:48:18.614Z,26.07
2019-03-25T10:50:48.143Z,23.57
2019-03-25T10:53:17.689Z,26.07
2019-03-25T10:55:47.371Z,22.20
2019-03-25T10:58:16.967Z,28.75
2019-03-25T11:00:46.324Z,21.73
2019-03-25T11:03:15.854Z,21.65
2019-03-25T11:05:46.298Z,23.83
2019-03-25T11:08:15.972Z,13.43
2019-03-25T11:10:45.545Z,16.73
2019-03-25T11:13:14.989Z,9.90
2019-03-25T11:15:44.503Z,22.85
2019-03-25T11:18:13.961Z,22.17
2019-03-25T11:20:44.044Z,18.90
2019-03-25T11:23:13.567Z,16.70
2019-03-25T11:25:44.616Z,19.20
2019-03-25T11:28:14.081Z,26.23
2019-03-25T11:30:51.408Z,23.00
2019-03-25T11:33:21.400Z,19.65
2019-03-25T11:35:52.420Z,20.80
2019-03-25T11:38:22.049Z,22.62
2019-03-25T11:40:51.585Z,20.30
2019-03-25T11:43:21.069Z,19.55
2019-03-25T11:45:50.860Z,18.32
2019-03-25T11:48:20.212Z,20.32
2019-03-25T11:50:49.825Z,14.07
2019-03-25T11:53:19.326Z,15.72
2019-03-25T11:55:48.862Z,14.75
2019-03-25T11:58:18.298Z,15.90
2019-03-25T12:00:47.801Z,20.08
2019-03-25T12:03:17.287Z,23.77
2019-03-25T12:05:47.050Z,24.55
2019-03-25T12:08:16.772Z,29.32
2019-03-25T12:10:46.163Z,24.32
2019-03-25T12:13:15.605Z,29.50
2019-03-25T12:15:45.004Z,24.85
2019-03-25T12:18:14.492Z,25.88
2019-03-25T12:20:44.110Z,17.15
2019-03-25T12:23:13.604Z,19.05
2019-03-25T12:25:43.164Z,21.75
2019-03-25T12:28:12.798Z,24.55
2019-03-25T12:30:42.340Z,24.37
2019-03-25T12:33:11.994Z,14.23
2019-03-25T12:35:41.502Z,32.88
2019-03-25T12:38:11.201Z,21.07
2019-03-25T12:40:40.941Z,22.87
2019-03-25T12:43:12.104Z,21.95
2019-03-25T12:45:41.684Z,23.15
2019-03-25T12:48:11.131Z,22.20
2019-03-25T12:50:40.668Z,26.48
2019-03-25T12:53:10.590Z,26.15
2019-03-25T12:55:40.149Z,22.70
2019-03-25T12:58:09.996Z,31.48
2019-03-25T13:00:44.112Z,26.65
2019-03-25T13:03:15.194Z,32.88
2019-03-25T13:05:45.032Z,19.45
2019-03-25T13:08:14.455Z,27.20
2019-03-25T13:10:43.909Z,27.95
2019-03-25T13:13:13.461Z,21.87
2019-03-25T13:15:42.854Z,21.33
2019-03-25T13:18:12.420Z,15.05
2019-03-25T13:20:41.952Z,15.90
2019-03-25T13:23:12.191Z,20.10
2019-03-25T13:25:43.977Z,20.85
2019-03-25T13:28:13.468Z,21.77
2019-03-25T13:30:43.000Z,21.25
2019-03-25T13:33:12.439Z,21.10
2019-03-25T13:35:42.068Z,19.10
2019-03-25T13:38:11.569Z,21.02
2019-03-25T13:40:40.985Z,17.80
2019-03-25T13:43:10.348Z,14.05
2019-03-25T13:45:39.764Z,18.75
2019-03-25T13:48:09.205Z,19.23
2019-03-25T13:50:38.661Z,15.18
2019-03-25T13:53:08.524Z,19.85
2019-03-25T13:55:38.014Z,17.95
2019-03-25T13:58:07.544Z,17.48
2019-03-25T14:00:38.521Z,15.78
2019-03-25T14:03:08.037Z,20.62
2019-03-25T14:05:38.872Z,18.12
2019-03-25T14:08:08.759Z,22.85
2019-03-25T14:10:38.343Z,17.77
2019-03-25T14:13:08.051Z,19.65
2019-03-25T14:15:37.634Z,15.83
2019-03-25T14:18:07.391Z,18.05
2019-03-25T14:20:36.760Z,22.40
2019-03-25T14:23:06.318Z,23.92
2019-03-25T14:25:35.981Z,20.50
2019-03-25T14:28:05.471Z,21.62
2019-03-25T14:30:36.583Z,23.60
2019-03-25T14:33:06.130Z,19.73
2019-03-25T14:35:35.883Z,21.27
2019-03-25T14:38:05.803Z,20.52
2019-03-25T14:40:35.526Z,23.30
2019-03-25T14:43:05.400Z,19.25
2019-03-25T14:45:37.541Z,27.87
2019-03-25T14:48:06.973Z,24.82
2019-03-25T14:50:36.743Z,17.85
2019-03-25T14:53:06.362Z,20.57
2019-03-25T14:55:37.404Z,23.27
2019-03-25T14:58:06.868Z,29.80
2019-03-25T15:00:36.447Z,32.98
2019-03-25T15:03:06.189Z,18.40
2019-03-25T15:05:35.818Z,26.37
2019-03-25T15:08:07.055Z,31.15
2019-03-25T15:10:36.591Z,33.23
2019-03-25T15:13:06.113Z,31.10
2019-03-25T15:15:37.040Z,29.00
2019-03-25T15:18:15.170Z,24.52
2019-03-25T15:20:37.601Z,27.60
2019-03-25T15:23:07.009Z,30.55
2019-03-25T15:25:37.353Z,23.87
2019-03-25T15:28:06.810Z,30.92
2019-03-25T15:30:36.594Z,33.65
2019-03-25T15:33:06.206Z,25.60
2019-03-25T15:35:35.626Z,39.42
2019-03-25T15:38:05.038Z,27.55
2019-03-25T15:40:34.449Z,27.22
2019-03-25T15:43:04.141Z,33.80
2019-03-25T15:45:33.517Z,27.22
2019-03-25T15:48:02.874Z,29.80
2019-03-25T15:50:33.997Z,29.70
2019-03-25T15:53:03.415Z,30.50
2019-03-25T15:55:32.935Z,27.73
2019-03-25T15:58:02.412Z,25.08
2019-03-25T16:00:31.976Z,32.17
2019-03-25T16:03:01.501Z,32.65
2019-03-25T16:05:30.943Z,26.70
2019-03-25T16:08:00.388Z,35.78
2019-03-25T16:10:29.968Z,38.80
2019-03-25T16:12:59.512Z,31.23
2019-03-25T16:15:40.284Z,36.28
2019-03-25T16:18:10.532Z,36.90
2019-03-25T16:20:40.097Z,28.52
2019-03-25T16:23:09.516Z,39.53
2019-03-25T16:25:38.937Z,36.20
2019-03-25T16:28:08.300Z,30.97
2019-03-25T16:30:37.833Z,33.88
2019-03-25T16:33:07.409Z,34.88
2019-03-25T16:35:36.914Z,25.45
2019-03-25T16:38:06.353Z,31.33
2019-03-25T16:40:36.484Z,30.77
2019-03-25T16:43:05.904Z,33.05
2019-03-25T16:45:35.364Z,29.80
2019-03-25T16:48:04.846Z,38.25
2019-03-25T16:50:34.324Z,34.20
2019-03-25T16:53:03.738Z,31.07
2019-03-25T16:55:33.118Z,25.43
2019-03-25T16:58:04.184Z,31.25
2019-03-25T17:00:33.640Z,30.77
2019-03-25T17:03:02.981Z,26.90
2019-03-25T17:05:32.602Z,34.27
2019-03-25T17:08:02.314Z,30.25
2019-03-25T17:10:32.004Z,32.90
2019-03-25T17:13:01.370Z,29.90
2019-03-25T17:15:33.323Z,35.43
2019-03-25T17:18:02.829Z,35.15
2019-03-25T17:20:32.363Z,33.20
2019-03-25T17:23:01.699Z,33.33
2019-03-25T17:25:31.150Z,33.75
2019-03-25T17:28:00.569Z,37.50
2019-03-25T17:30:30.449Z,33.50
2019-03-25T17:32:59.889Z,32.28
2019-03-25T17:35:29.272Z,33.80
2019-03-25T17:37:58.938Z,31.00
2019-03-25T17:40:28.457Z,34.92
2019-03-25T17:42:57.984Z,34.92
2019-03-25T17:45:27.679Z,36.63
2019-03-25T17:47:57.169Z,30.75
2019-03-25T17:50:29.667Z,34.63
2019-03-25T17:52:59.053Z,46.18
2019-03-25T17:55:28.731Z,34.90
2019-03-25T17:57:58.285Z,38.63
2019-03-25T18:00:53.885Z,38.67
2019-03-25T18:03:23.348Z,43.38
2019-03-25T18:05:52.751Z,39.38
2019-03-25T18:08:22.255Z,47.88
2019-03-25T18:10:51.884Z,40.03
2019-03-25T18:13:22.514Z,36.68
2019-03-25T18:15:53.954Z,46.10
2019-03-25T18:18:23.415Z,37.35
2019-03-25T18:20:53.000Z,37.23
2019-03-25T18:23:22.462Z,45.12
2019-03-25T18:25:51.857Z,40.73
2019-03-25T18:28:21.287Z,39.65
2019-03-25T18:30:50.878Z,42.13
2019-03-25T18:33:20.467Z,42.08
2019-03-25T18:35:50.122Z,42.58
2019-03-25T18:38:19.570Z,49.38
2019-03-25T18:40:49.054Z,44.10
2019-03-25T18:43:18.588Z,41.33
2019-03-25T18:45:48.200Z,41.15
2019-03-25T18:48:17.833Z,51.77
2019-03-25T18:50:47.343Z,49.48
2019-03-25T18:53:17.140Z,36.13
2019-03-25T18:55:46.925Z,45.63
2019-03-25T18:58:16.849Z,42.35
2019-03-25T19:00:46.440Z,39.58
2019-03-25T19:03:18.336Z,47.65
2019-03-25T19:05:47.311Z,39.78
2019-03-25T19:08:18.130Z,45.50
2019-03-25T19:10:47.622Z,41.10
2019-03-25T19:13:18.703Z,43.52
2019-03-25T19:15:48.313Z,33.92
2019-03-25T19:18:19.351Z,33.33
2019-03-25T19:20:48.871Z,51.00
2019-03-25T19:23:18.350Z,48.20
2019-03-25T19:25:48.256Z,43.35
2019-03-25T19:28:18.392Z,47.05
2019-03-25T19:30:47.900Z,40.08
2019-03-25T19:33:17.494Z,47.60
2019-03-25T19:35:47.046Z,47.05
2019-03-25T19:38:16.738Z,39.80
2019-03-25T19:40:46.448Z,42.90
2019-03-25T19:43:16.074Z,46.92
2019-03-25T19:45:45.632Z,45.52
2019-03-25T19:48:15.218Z,39.88
2019-03-25T19:50:46.371Z,38.83
2019-03-25T19:53:19.279Z,39.27
2019-03-25T19:55:48.755Z,37.78
2019-03-25T19:58:18.295Z,31.05
2019-03-25T20:00:50.754Z,32.38
2019-03-25T20:03:20.381Z,27.13
2019-03-25T20:05:50.330Z,32.83
2019-03-25T20:08:19.960Z,29.67
2019-03-25T20:10:49.825Z,28.52
2019-03-25T20:13:19.357Z,26.15
2019-03-25T20:15:50.173Z,26.55
2019-03-25T20:18:19.623Z,26.23
2019-03-25T20:20:50.132Z,36.85
2019-03-25T20:23:19.938Z,28.42
2019-03-25T20:25:50.685Z,27.00
2019-03-25T20:28:20.089Z,31.70
2019-03-25T20:30:49.479Z,31.68
2019-03-25T20:33:19.092Z,27.87
2019-03-25T20:35:48.776Z,33.00
2019-03-25T20:38:18.384Z,33.60
2019-03-25T20:40:48.285Z,31.23
2019-03-25T20:43:18.688Z,34.92
2019-03-25T20:45:48.275Z,31.37
2019-03-25T20:48:17.814Z,33.30
2019-03-25T20:50:47.440Z,31.23
2019-03-25T20:53:17.092Z,24.43
2019-03-25T20:55:46.817Z,29.10
2019-03-25T20:58:18.263Z,37.58
2019-03-25T21:00:50.219Z,26.80
2019-03-25T21:03:21.628Z,32.05
2019-03-25T21:05:51.289Z,26.68
2019-03-25T21:08:20.850Z,20.72
2019-03-25T21:10:50.570Z,22.55
2019-03-25T21:13:20.270Z,26.12
2019-03-25T21:15:49.908Z,27.62
2019-03-25T21:18:19.578Z,17.32
2019-03-25T21:20:49.207Z,17.90
2019-03-25T21:23:18.783Z,20.68
2019-03-25T21:25:48.298Z,17.55
2019-03-25T21:28:18.029Z,18.37
2019-03-25T21:30:48.489Z,23.20
2019-03-25T21:33:18.451Z,21.97
2019-03-25T21:35:48.226Z,21.60
2019-03-25T21:38:17.685Z,28.50
2019-03-25T21:40:47.291Z,22.40
2019-03-25T21:43:16.747Z,26.23
2019-03-25T21:45:46.285Z,19.48
2019-03-25T21:48:17.451Z,24.45
2019-03-25T21:50:48.362Z,26.82
2019-03-25T21:53:18.793Z,18.12
2019-03-25T21:55:48.451Z,20.45
2019-03-25T21:58:17.985Z,29.75
2019-03-25T22:00:47.483Z,27.77
2019-03-25T22:03:16.990Z,26.87
2019-03-25T22:05:46.867Z,28.12
2019-03-25T22:08:18.312Z,27.50
2019-03-25T22:10:47.752Z,26.17
2019-03-25T22:13:17.258Z,28.30
2019-03-25T22:15:46.961Z,33.75
2019-03-25T22:18:16.439Z,25.95
2019-03-25T22:20:46.993Z,27.75
2019-03-25T22:23:16.587Z,22.22
2019-03-25T22:25:46.244Z,36.35
2019-03-25T22:28:16.294Z,31.30
2019-03-25T22:30:45.799Z,24.82
2019-03-25T22:33:25.249Z,25.57
2019-03-25T22:35:46.476Z,24.82
2019-03-25T22:38:15.951Z,23.12
2019-03-25T22:40:45.375Z,25.88
2019-03-25T22:43:14.776Z,21.45
2019-03-25T22:45:44.158Z,21.50
2019-03-25T22:48:13.545Z,22.25
2019-03-25T22:50:44.065Z,29.72
2019-03-25T22:53:13.515Z,23.90
2019-03-25T22:55:42.936Z,24.12
2019-03-25T22:58:12.421Z,27.67
2019-03-25T23:00:43.506Z,29.52
2019-03-25T23:03:13.350Z,23.22
2019-03-25T23:05:42.800Z,24.80
2019-03-25T23:08:12.238Z,23.92
2019-03-25T23:10:43.250Z,29.48
2019-03-25T23:13:12.900Z,24.65
2019-03-25T23:15:43.548Z,22.90
2019-03-25T23:18:12.985Z,26.12
2019-03-25T23:20:42.487Z,28.12
2019-03-25T23:23:12.059Z,27.75
2019-03-25T23:25:41.511Z,26.12
2019-03-25T23:28:12.118Z,28.55
2019-03-25T23:30:41.676Z,30.43
2019-03-25T23:33:11.159Z,28.35
2019-03-25T23:35:40.777Z,29.35
2019-03-25T23:38:10.279Z,37.93
2019-03-25T23:40:40.125Z,32.33
2019-03-25T23:43:09.702Z,29.67
2019-03-25T23:45:39.164Z,25.90
2019-03-25T23:48:10.124Z,27.80
2019-03-25T23:50:40.710Z,25.40
2019-03-25T23:53:10.160Z,18.32
2019-03-25T23:55:39.645Z,20.52
2019-03-25T23:58:09.039Z,25.77
